sensor_id;sensor_type;location;lat;lon;timestamp;temperature;humidity
21698;DHT22;11010;49.548;11.926;2023-10-13T00:01:59;15.10;99.90
21698;DHT22;11010;49.548;11.926;2023-10-13T00:04:29;15.00;99.90
21698;DHT22;11010;49.548;11.926;2023-10-13T00:06:59;15.10;99.90
21698;DHT22;11010;49.548;11.926;2023-10-13T00:09:30;15.10;99.90
21698;DHT22;11010;49.548;11.926;2023-10-13T00:12:00;15.10;99.90
21698;DHT22;11010;49.548;11.926;2023-10-13T00:14:28;15.10;99.90
21698;DHT22;11010;49.548;11.926;2023-10-13T00:17:03;15.10;99.90
21698;DHT22;11010;49.548;11.926;2023-10-13T00:19:32;15.10;99.90
21698;DHT22;11010;49.548;11.926;2023-10-13T00:22:15;15.10;99.90
21698;DHT22;11010;49.548;11.926;2023-10-13T00:24:52;15.00;99.90
21698;DHT22;11010;49.548;11.926;2023-10-13T00:27:30;14.90;99.90
21698;DHT22;11010;49.548;11.926;2023-10-13T00:30:04;14.90;99.90
21698;DHT22;11010;49.548;11.926;2023-10-13T00:32:49;14.90;99.90
21698;DHT22;11010;49.548;11.926;2023-10-13T00:35:25;14.90;99.90
21698;DHT22;11010;49.548;11.926;2023-10-13T00:37:56;14.70;99.90
21698;DHT22;11010;49.548;11.926;2023-10-13T00:40:32;14.80;99.90
21698;DHT22;11010;49.548;11.926;2023-10-13T00:43:01;14.80;99.90
21698;DHT22;11010;49.548;11.926;2023-10-13T00:45:52;14.70;99.90
21698;DHT22;11010;49.548;11.926;2023-10-13T00:48:24;14.80;99.90
21698;DHT22;11010;49.548;11.926;2023-10-13T00:50:57;14.80;99.90
21698;DHT22;11010;49.548;11.926;2023-10-13T00:53:31;14.70;99.90
21698;DHT22;11010;49.548;11.926;2023-10-13T00:56:04;14.70;99.90
21698;DHT22;11010;49.548;11.926;2023-10-13T00:58:35;14.80;99.90
21698;DHT22;11010;49.548;11.926;2023-10-13T01:01:03;14.80;99.90
21698;DHT22;11010;49.548;11.926;2023-10-13T01:03:53;14.70;99.90
21698;DHT22;11010;49.548;11.926;2023-10-13T01:06:27;14.70;99.90
21698;DHT22;11010;49.548;11.926;2023-10-13T01:09:09;14.70;99.90
21698;DHT22;11010;49.548;11.926;2023-10-13T01:11:50;14.80;99.90
21698;DHT22;11010;49.548;11.926;2023-10-13T01:14:22;14.80;99.90
21698;DHT22;11010;49.548;11.926;2023-10-13T01:16:55;14.80;99.90
21698;DHT22;11010;49.548;11.926;2023-10-13T01:19:25;14.80;99.90
21698;DHT22;11010;49.548;11.926;2023-10-13T01:21:55;14.90;99.90
21698;DHT22;11010;49.548;11.926;2023-10-13T01:24:31;14.90;99.90
21698;DHT22;11010;49.548;11.926;2023-10-13T01:27:03;14.80;99.90
21698;DHT22;11010;49.548;11.926;2023-10-13T01:29:56;14.70;99.90
21698;DHT22;11010;49.548;11.926;2023-10-13T01:32:33;14.70;99.90
21698;DHT22;11010;49.548;11.926;2023-10-13T01:35:00;14.80;99.90
21698;DHT22;11010;49.548;11.926;2023-10-13T01:37:33;14.90;99.90
21698;DHT22;11010;49.548;11.926;2023-10-13T01:40:00;14.90;99.90
21698;DHT22;11010;49.548;11.926;2023-10-13T01:42:28;15.00;99.90
21698;DHT22;11010;49.548;11.926;2023-10-13T01:44:55;15.00;99.90
21698;DHT22;11010;49.548;11.926;2023-10-13T01:47:25;15.00;99.90
21698;DHT22;11010;49.548;11.926;2023-10-13T01:49:55;15.00;99.90
21698;DHT22;11010;49.548;11.926;2023-10-13T01:52:25;15.00;99.90
21698;DHT22;11010;49.548;11.926;2023-10-13T01:54:54;15.00;99.90
21698;DHT22;11010;49.548;11.926;2023-10-13T01:57:22;15.00;99.90
21698;DHT22;11010;49.548;11.926;2023-10-13T01:59:51;15.00;99.90
21698;DHT22;11010;49.548;11.926;2023-10-13T02:02:18;15.00;99.90
21698;DHT22;11010;49.548;11.926;2023-10-13T02:05:06;15.00;99.90
21698;DHT22;11010;49.548;11.926;2023-10-13T02:07:34;15.00;99.90
21698;DHT22;11010;49.548;11.926;2023-10-13T02:10:02;14.90;99.90
21698;DHT22;11010;49.548;11.926;2023-10-13T02:12:33;14.90;99.90
21698;DHT22;11010;49.548;11.926;2023-10-13T02:15:11;14.90;99.90
21698;DHT22;11010;49.548;11.926;2023-10-13T02:17:47;14.90;99.90
21698;DHT22;11010;49.548;11.926;2023-10-13T02:20:19;14.90;99.90
21698;DHT22;11010;49.548;11.926;2023-10-13T02:22:50;15.00;99.90
21698;DHT22;11010;49.548;11.926;2023-10-13T02:25:19;15.00;99.90
21698;DHT22;11010;49.548;11.926;2023-10-13T02:28:05;14.90;99.90
21698;DHT22;11010;49.548;11.926;2023-10-13T02:30:44;14.90;99.90
21698;DHT22;11010;49.548;11.926;2023-10-13T02:33:13;14.90;99.90
21698;DHT22;11010;49.548;11.926;2023-10-13T02:35:41;14.90;99.90
21698;DHT22;11010;49.548;11.926;2023-10-13T02:38:09;14.90;99.90
21698;DHT22;11010;49.548;11.926;2023-10-13T02:40:40;14.90;99.90
21698;DHT22;11010;49.548;11.926;2023-10-13T02:43:07;14.90;99.90
21698;DHT22;11010;49.548;11.926;2023-10-13T02:45:35;14.90;99.90
21698;DHT22;11010;49.548;11.926;2023-10-13T02:48:05;14.90;99.90
21698;DHT22;11010;49.548;11.926;2023-10-13T02:50:41;14.90;99.90
21698;DHT22;11010;49.548;11.926;2023-10-13T02:53:13;14.90;99.90
21698;DHT22;11010;49.548;11.926;2023-10-13T02:55:53;14.90;99.90
21698;DHT22;11010;49.548;11.926;2023-10-13T02:58:20;14.90;99.90
21698;DHT22;11010;49.548;11.926;2023-10-13T03:00:48;14.80;99.90
21698;DHT22;11010;49.548;11.926;2023-10-13T03:03:16;14.90;99.90
21698;DHT22;11010;49.548;11.926;2023-10-13T03:05:46;14.90;99.90
21698;DHT22;11010;49.548;11.926;2023-10-13T03:08:13;14.80;99.90
21698;DHT22;11010;49.548;11.926;2023-10-13T03:10:52;14.80;99.90
21698;DHT22;11010;49.548;11.926;2023-10-13T03:13:21;14.90;99.90
21698;DHT22;11010;49.548;11.926;2023-10-13T03:15:49;14.90;99.90
21698;DHT22;11010;49.548;11.926;2023-10-13T03:18:16;14.80;99.90
21698;DHT22;11010;49.548;11.926;2023-10-13T03:20:46;14.80;99.90
21698;DHT22;11010;49.548;11.926;2023-10-13T03:23:17;14.80;99.90
21698;DHT22;11010;49.548;11.926;2023-10-13T03:25:45;14.80;99.90
21698;DHT22;11010;49.548;11.926;2023-10-13T03:28:20;14.80;99.90
21698;DHT22;11010;49.548;11.926;2023-10-13T03:30:51;14.80;99.90
21698;DHT22;11010;49.548;11.926;2023-10-13T03:33:20;14.80;99.90
21698;DHT22;11010;49.548;11.926;2023-10-13T03:35:53;14.80;99.90
21698;DHT22;11010;49.548;11.926;2023-10-13T03:38:21;14.80;99.90
21698;DHT22;11010;49.548;11.926;2023-10-13T03:40:54;14.80;99.90
21698;DHT22;11010;49.548;11.926;2023-10-13T03:43:45;14.80;99.90
21698;DHT22;11010;49.548;11.926;2023-10-13T03:46:17;14.80;99.90
21698;DHT22;11010;49.548;11.926;2023-10-13T03:48:48;14.80;99.90
21698;DHT22;11010;49.548;11.926;2023-10-13T03:51:19;14.80;99.90
21698;DHT22;11010;49.548;11.926;2023-10-13T03:53:47;14.70;99.90
21698;DHT22;11010;49.548;11.926;2023-10-13T03:56:22;14.70;99.90
21698;DHT22;11010;49.548;11.926;2023-10-13T03:59:07;14.70;99.90
21698;DHT22;11010;49.548;11.926;2023-10-13T04:01:47;14.70;99.90
21698;DHT22;11010;49.548;11.926;2023-10-13T04:04:30;14.70;99.90
21698;DHT22;11010;49.548;11.926;2023-10-13T04:06:57;14.70;99.90
21698;DHT22;11010;49.548;11.926;2023-10-13T04:09:37;14.70;99.90
21698;DHT22;11010;49.548;11.926;2023-10-13T04:12:14;14.70;99.90
21698;DHT22;11010;49.548;11.926;2023-10-13T04:15:00;14.70;99.90
21698;DHT22;11010;49.548;11.926;2023-10-13T04:17:33;14.70;99.90
21698;DHT22;11010;49.548;11.926;2023-10-13T04:20:08;14.60;99.90
21698;DHT22;11010;49.548;11.926;2023-10-13T04:22:44;14.70;99.90
21698;DHT22;11010;49.548;11.926;2023-10-13T04:25:25;14.50;99.90
21698;DHT22;11010;49.548;11.926;2023-10-13T04:28:10;14.60;99.90
21698;DHT22;11010;49.548;11.926;2023-10-13T04:30:48;14.60;99.90
21698;DHT22;11010;49.548;11.926;2023-10-13T04:33:19;14.60;99.90
21698;DHT22;11010;49.548;11.926;2023-10-13T04:36:13;14.50;99.90
21698;DHT22;11010;49.548;11.926;2023-10-13T04:38:50;14.60;99.90
21698;DHT22;11010;49.548;11.926;2023-10-13T04:41:29;14.60;99.90
21698;DHT22;11010;49.548;11.926;2023-10-13T04:44:14;14.70;99.90
21698;DHT22;11010;49.548;11.926;2023-10-13T04:46:58;14.60;99.90
21698;DHT22;11010;49.548;11.926;2023-10-13T04:49:28;14.60;99.90
21698;DHT22;11010;49.548;11.926;2023-10-13T04:52:04;14.60;99.90
21698;DHT22;11010;49.548;11.926;2023-10-13T04:54:45;14.60;99.90
21698;DHT22;11010;49.548;11.926;2023-10-13T04:57:18;14.60;99.90
21698;DHT22;11010;49.548;11.926;2023-10-13T05:00:07;14.60;99.90
21698;DHT22;11010;49.548;11.926;2023-10-13T05:05:13;14.60;99.90
21698;DHT22;11010;49.548;11.926;2023-10-13T05:07:41;14.60;99.90
21698;DHT22;11010;49.548;11.926;2023-10-13T05:10:28;14.60;99.90
21698;DHT22;11010;49.548;11.926;2023-10-13T05:13:15;14.60;99.90
21698;DHT22;11010;49.548;11.926;2023-10-13T05:16:01;14.60;99.90
21698;DHT22;11010;49.548;11.926;2023-10-13T05:18:47;14.60;99.90
21698;DHT22;11010;49.548;11.926;2023-10-13T05:21:32;14.60;99.90
21698;DHT22;11010;49.548;11.926;2023-10-13T05:24:19;14.60;99.90
21698;DHT22;11010;49.548;11.926;2023-10-13T05:27:05;14.50;99.90
21698;DHT22;11010;49.548;11.926;2023-10-13T05:29:51;14.60;99.90
21698;DHT22;11010;49.548;11.926;2023-10-13T05:32:37;14.60;99.90
21698;DHT22;11010;49.548;11.926;2023-10-13T05:35:24;14.50;99.90
21698;DHT22;11010;49.548;11.926;2023-10-13T05:38:10;14.50;99.90
21698;DHT22;11010;49.548;11.926;2023-10-13T05:41:03;14.50;99.90
21698;DHT22;11010;49.548;11.926;2023-10-13T05:44:02;14.50;99.90
21698;DHT22;11010;49.548;11.926;2023-10-13T05:46:48;14.50;99.90
21698;DHT22;11010;49.548;11.926;2023-10-13T05:49:16;14.50;99.90
21698;DHT22;11010;49.548;11.926;2023-10-13T05:51:44;14.60;99.90
21698;DHT22;11010;49.548;11.926;2023-10-13T05:54:25;14.60;99.90
21698;DHT22;11010;49.548;11.926;2023-10-13T05:56:52;14.60;99.90
21698;DHT22;11010;49.548;11.926;2023-10-13T05:59:38;14.60;99.90
21698;DHT22;11010;49.548;11.926;2023-10-13T06:02:24;14.60;99.90
21698;DHT22;11010;49.548;11.926;2023-10-13T06:05:12;14.50;99.90
21698;DHT22;11010;49.548;11.926;2023-10-13T06:07:58;14.60;99.90
21698;DHT22;11010;49.548;11.926;2023-10-13T06:10:45;14.60;99.90
21698;DHT22;11010;49.548;11.926;2023-10-13T06:13:31;14.60;99.90
21698;DHT22;11010;49.548;11.926;2023-10-13T06:16:31;14.70;99.90
21698;DHT22;11010;49.548;11.926;2023-10-13T06:19:17;14.60;99.90
21698;DHT22;11010;49.548;11.926;2023-10-13T06:22:03;14.70;99.90
21698;DHT22;11010;49.548;11.926;2023-10-13T06:24:48;14.70;99.90
21698;DHT22;11010;49.548;11.926;2023-10-13T06:27:34;14.70;99.90
21698;DHT22;11010;49.548;11.926;2023-10-13T06:30:20;14.70;99.90
21698;DHT22;11010;49.548;11.926;2023-10-13T06:32:47;14.80;99.90
21698;DHT22;11010;49.548;11.926;2023-10-13T06:35:18;14.70;99.90
21698;DHT22;11010;49.548;11.926;2023-10-13T06:37:51;14.80;99.90
21698;DHT22;11010;49.548;11.926;2023-10-13T06:40:19;14.80;99.90
21698;DHT22;11010;49.548;11.926;2023-10-13T06:42:54;14.80;99.90
21698;DHT22;11010;49.548;11.926;2023-10-13T06:45:31;14.70;99.90
21698;DHT22;11010;49.548;11.926;2023-10-13T06:48:04;14.70;99.90
21698;DHT22;11010;49.548;11.926;2023-10-13T06:50:32;14.70;99.90
21698;DHT22;11010;49.548;11.926;2023-10-13T06:53:06;14.70;99.90
21698;DHT22;11010;49.548;11.926;2023-10-13T06:55:37;14.70;99.90
21698;DHT22;11010;49.548;11.926;2023-10-13T06:58:07;14.70;99.90
21698;DHT22;11010;49.548;11.926;2023-10-13T07:00:41;14.70;99.90
21698;DHT22;11010;49.548;11.926;2023-10-13T07:03:08;14.80;99.90
21698;DHT22;11010;49.548;11.926;2023-10-13T07:05:37;14.80;99.90
21698;DHT22;11010;49.548;11.926;2023-10-13T07:08:09;14.90;99.90
21698;DHT22;11010;49.548;11.926;2023-10-13T07:10:36;14.90;99.90
21698;DHT22;11010;49.548;11.926;2023-10-13T07:13:16;14.90;99.90
21698;DHT22;11010;49.548;11.926;2023-10-13T07:15:45;14.90;99.90
21698;DHT22;11010;49.548;11.926;2023-10-13T07:18:13;15.00;99.90
21698;DHT22;11010;49.548;11.926;2023-10-13T07:20:42;15.00;99.90
21698;DHT22;11010;49.548;11.926;2023-10-13T07:23:13;15.10;99.90
21698;DHT22;11010;49.548;11.926;2023-10-13T07:25:52;15.10;99.90
21698;DHT22;11010;49.548;11.926;2023-10-13T07:28:31;15.20;99.90
21698;DHT22;11010;49.548;11.926;2023-10-13T07:30:58;15.20;99.90
21698;DHT22;11010;49.548;11.926;2023-10-13T07:33:28;15.30;99.90
21698;DHT22;11010;49.548;11.926;2023-10-13T07:36:06;15.30;99.90
21698;DHT22;11010;49.548;11.926;2023-10-13T07:38:44;15.30;99.90
21698;DHT22;11010;49.548;11.926;2023-10-13T07:41:32;15.30;99.90
21698;DHT22;11010;49.548;11.926;2023-10-13T07:44:03;15.40;99.90
21698;DHT22;11010;49.548;11.926;2023-10-13T07:46:34;15.40;99.90
21698;DHT22;11010;49.548;11.926;2023-10-13T07:49:03;15.40;99.90
21698;DHT22;11010;49.548;11.926;2023-10-13T07:51:38;15.60;99.90
21698;DHT22;11010;49.548;11.926;2023-10-13T07:54:13;15.60;99.90
21698;DHT22;11010;49.548;11.926;2023-10-13T07:56:49;15.70;99.90
21698;DHT22;11010;49.548;11.926;2023-10-13T07:59:17;15.80;99.90
21698;DHT22;11010;49.548;11.926;2023-10-13T08:01:49;15.90;99.90
21698;DHT22;11010;49.548;11.926;2023-10-13T08:04:38;15.90;99.90
21698;DHT22;11010;49.548;11.926;2023-10-13T08:07:05;16.00;99.90
21698;DHT22;11010;49.548;11.926;2023-10-13T08:09:40;16.10;99.90
21698;DHT22;11010;49.548;11.926;2023-10-13T08:12:08;16.20;99.90
21698;DHT22;11010;49.548;11.926;2023-10-13T08:14:39;16.20;99.90
21698;DHT22;11010;49.548;11.926;2023-10-13T08:17:08;16.20;99.90
21698;DHT22;11010;49.548;11.926;2023-10-13T08:19:40;16.30;99.90
21698;DHT22;11010;49.548;11.926;2023-10-13T08:22:09;16.40;99.90
21698;DHT22;11010;49.548;11.926;2023-10-13T08:24:47;16.40;99.90
21698;DHT22;11010;49.548;11.926;2023-10-13T08:27:20;16.40;99.90
21698;DHT22;11010;49.548;11.926;2023-10-13T08:30:15;16.50;99.90
21698;DHT22;11010;49.548;11.926;2023-10-13T08:33:09;16.60;99.90
21698;DHT22;11010;49.548;11.926;2023-10-13T08:35:45;16.60;99.90
21698;DHT22;11010;49.548;11.926;2023-10-13T08:38:23;16.70;99.90
21698;DHT22;11010;49.548;11.926;2023-10-13T08:40:59;16.60;99.90
21698;DHT22;11010;49.548;11.926;2023-10-13T08:43:46;16.70;99.90
21698;DHT22;11010;49.548;11.926;2023-10-13T08:46:20;16.70;99.90
21698;DHT22;11010;49.548;11.926;2023-10-13T08:48:59;16.80;99.90
21698;DHT22;11010;49.548;11.926;2023-10-13T08:51:42;17.00;99.90
21698;DHT22;11010;49.548;11.926;2023-10-13T08:54:17;17.10;99.90
21698;DHT22;11010;49.548;11.926;2023-10-13T08:57:02;17.10;99.90
21698;DHT22;11010;49.548;11.926;2023-10-13T08:59:52;17.20;99.90
21698;DHT22;11010;49.548;11.926;2023-10-13T09:02:23;17.20;99.90
21698;DHT22;11010;49.548;11.926;2023-10-13T09:05:11;17.40;99.90
21698;DHT22;11010;49.548;11.926;2023-10-13T09:07:58;17.50;99.90
21698;DHT22;11010;49.548;11.926;2023-10-13T09:10:36;17.50;99.90
21698;DHT22;11010;49.548;11.926;2023-10-13T09:13:34;17.50;99.90
21698;DHT22;11010;49.548;11.926;2023-10-13T09:16:13;17.60;99.90
21698;DHT22;11010;49.548;11.926;2023-10-13T09:19:04;17.70;99.90
21698;DHT22;11010;49.548;11.926;2023-10-13T09:21:39;17.80;99.90
21698;DHT22;11010;49.548;11.926;2023-10-13T09:24:13;17.90;99.90
21698;DHT22;11010;49.548;11.926;2023-10-13T09:26:45;18.10;99.90
21698;DHT22;11010;49.548;11.926;2023-10-13T09:29:17;18.30;99.90
21698;DHT22;11010;49.548;11.926;2023-10-13T09:31:47;18.40;99.90
21698;DHT22;11010;49.548;11.926;2023-10-13T09:34:22;18.70;99.90
21698;DHT22;11010;49.548;11.926;2023-10-13T09:37:00;18.80;99.90
21698;DHT22;11010;49.548;11.926;2023-10-13T09:39:32;19.00;99.90
21698;DHT22;11010;49.548;11.926;2023-10-13T09:42:15;19.20;99.90
21698;DHT22;11010;49.548;11.926;2023-10-13T09:44:46;19.50;99.90
21698;DHT22;11010;49.548;11.926;2023-10-13T09:47:23;19.50;99.90
21698;DHT22;11010;49.548;11.926;2023-10-13T09:50:08;19.30;99.90
21698;DHT22;11010;49.548;11.926;2023-10-13T09:52:52;19.10;99.90
21698;DHT22;11010;49.548;11.926;2023-10-13T09:55:27;19.20;99.90
21698;DHT22;11010;49.548;11.926;2023-10-13T09:58:06;19.40;99.90
21698;DHT22;11010;49.548;11.926;2023-10-13T10:00:51;19.70;99.90
21698;DHT22;11010;49.548;11.926;2023-10-13T10:03:46;19.80;99.90
21698;DHT22;11010;49.548;11.926;2023-10-13T10:06:40;20.60;99.90
21698;DHT22;11010;49.548;11.926;2023-10-13T10:09:18;20.70;99.90
21698;DHT22;11010;49.548;11.926;2023-10-13T10:12:07;21.00;99.90
21698;DHT22;11010;49.548;11.926;2023-10-13T10:14:59;21.40;99.90
21698;DHT22;11010;49.548;11.926;2023-10-13T10:17:43;21.40;99.90
21698;DHT22;11010;49.548;11.926;2023-10-13T10:20:11;21.50;99.90
21698;DHT22;11010;49.548;11.926;2023-10-13T10:22:57;21.60;99.90
21698;DHT22;11010;49.548;11.926;2023-10-13T10:25:35;21.90;99.90
21698;DHT22;11010;49.548;11.926;2023-10-13T10:28:05;22.10;99.90
21698;DHT22;11010;49.548;11.926;2023-10-13T10:30:37;22.10;99.90
21698;DHT22;11010;49.548;11.926;2023-10-13T10:33:10;22.20;99.90
21698;DHT22;11010;49.548;11.926;2023-10-13T10:35:43;22.60;99.90
21698;DHT22;11010;49.548;11.926;2023-10-13T10:38:16;22.40;99.90
21698;DHT22;11010;49.548;11.926;2023-10-13T10:41:02;22.10;99.90
21698;DHT22;11010;49.548;11.926;2023-10-13T10:46:17;22.70;99.90
21698;DHT22;11010;49.548;11.926;2023-10-13T10:48:45;22.70;99.90
21698;DHT22;11010;49.548;11.926;2023-10-13T10:51:14;23.00;99.90
21698;DHT22;11010;49.548;11.926;2023-10-13T10:53:55;23.20;99.90
21698;DHT22;11010;49.548;11.926;2023-10-13T10:56:25;23.10;99.90
21698;DHT22;11010;49.548;11.926;2023-10-13T10:59:05;22.80;99.90
21698;DHT22;11010;49.548;11.926;2023-10-13T11:01:44;22.90;99.90
21698;DHT22;11010;49.548;11.926;2023-10-13T11:04:15;24.10;99.90
21698;DHT22;11010;49.548;11.926;2023-10-13T11:06:50;23.60;99.90
21698;DHT22;11010;49.548;11.926;2023-10-13T11:11:54;23.50;99.90
21698;DHT22;11010;49.548;11.926;2023-10-13T11:14:26;23.80;99.90
21698;DHT22;11010;49.548;11.926;2023-10-13T11:16:57;24.10;99.90
21698;DHT22;11010;49.548;11.926;2023-10-13T11:19:36;24.40;99.90
21698;DHT22;11010;49.548;11.926;2023-10-13T11:22:21;24.10;99.90
21698;DHT22;11010;49.548;11.926;2023-10-13T11:25:20;23.90;99.90
21698;DHT22;11010;49.548;11.926;2023-10-13T11:27:50;23.60;99.90
21698;DHT22;11010;49.548;11.926;2023-10-13T11:30:18;24.10;99.90
21698;DHT22;11010;49.548;11.926;2023-10-13T11:33:06;24.80;99.90
21698;DHT22;11010;49.548;11.926;2023-10-13T11:35:36;24.50;99.90
21698;DHT22;11010;49.548;11.926;2023-10-13T11:38:32;24.50;99.90
21698;DHT22;11010;49.548;11.926;2023-10-13T11:41:16;25.00;99.90
21698;DHT22;11010;49.548;11.926;2023-10-13T11:43:50;24.80;99.90
21698;DHT22;11010;49.548;11.926;2023-10-13T11:46:26;24.90;99.90
21698;DHT22;11010;49.548;11.926;2023-10-13T11:49:04;24.90;99.90
21698;DHT22;11010;49.548;11.926;2023-10-13T11:51:45;25.20;99.90
21698;DHT22;11010;49.548;11.926;2023-10-13T11:56:44;25.10;99.90
21698;DHT22;11010;49.548;11.926;2023-10-13T11:59:12;25.40;99.90
21698;DHT22;11010;49.548;11.926;2023-10-13T12:01:54;25.80;99.90
21698;DHT22;11010;49.548;11.926;2023-10-13T12:04:40;25.30;99.90
21698;DHT22;11010;49.548;11.926;2023-10-13T12:07:08;24.90;99.90
21698;DHT22;11010;49.548;11.926;2023-10-13T12:09:46;25.00;99.90
21698;DHT22;11010;49.548;11.926;2023-10-13T12:12:23;25.10;99.90
21698;DHT22;11010;49.548;11.926;2023-10-13T12:14:51;25.60;99.90
21698;DHT22;11010;49.548;11.926;2023-10-13T12:17:30;25.40;99.90
21698;DHT22;11010;49.548;11.926;2023-10-13T12:20:07;25.80;99.90
21698;DHT22;11010;49.548;11.926;2023-10-13T12:22:39;25.40;99.90
21698;DHT22;11010;49.548;11.926;2023-10-13T12:25:09;25.40;99.90
21698;DHT22;11010;49.548;11.926;2023-10-13T12:27:53;25.40;99.90
21698;DHT22;11010;49.548;11.926;2023-10-13T12:30:43;24.90;99.90
21698;DHT22;11010;49.548;11.926;2023-10-13T12:33:16;25.00;99.90
21698;DHT22;11010;49.548;11.926;2023-10-13T12:35:59;25.30;99.90
21698;DHT22;11010;49.548;11.926;2023-10-13T12:38:42;24.80;99.90
21698;DHT22;11010;49.548;11.926;2023-10-13T12:41:16;25.40;99.90
21698;DHT22;11010;49.548;11.926;2023-10-13T12:44:04;25.50;99.90
21698;DHT22;11010;49.548;11.926;2023-10-13T12:46:51;25.30;99.90
21698;DHT22;11010;49.548;11.926;2023-10-13T12:49:38;25.60;99.90
21698;DHT22;11010;49.548;11.926;2023-10-13T12:52:06;25.30;99.90
21698;DHT22;11010;49.548;11.926;2023-10-13T12:54:54;25.20;99.90
21698;DHT22;11010;49.548;11.926;2023-10-13T12:57:27;24.80;99.90
21698;DHT22;11010;49.548;11.926;2023-10-13T12:59:55;24.40;99.90
21698;DHT22;11010;49.548;11.926;2023-10-13T13:02:26;24.20;99.90
21698;DHT22;11010;49.548;11.926;2023-10-13T13:04:55;24.30;99.90
21698;DHT22;11010;49.548;11.926;2023-10-13T13:07:41;24.70;99.90
21698;DHT22;11010;49.548;11.926;2023-10-13T13:10:14;25.70;99.90
21698;DHT22;11010;49.548;11.926;2023-10-13T13:12:43;26.20;99.90
21698;DHT22;11010;49.548;11.926;2023-10-13T13:15:11;26.40;99.90
21698;DHT22;11010;49.548;11.926;2023-10-13T13:17:39;26.40;99.90
21698;DHT22;11010;49.548;11.926;2023-10-13T13:20:08;26.50;99.90
21698;DHT22;11010;49.548;11.926;2023-10-13T13:22:53;26.70;99.90
21698;DHT22;11010;49.548;11.926;2023-10-13T13:25:22;26.50;99.90
21698;DHT22;11010;49.548;11.926;2023-10-13T13:27:58;26.00;99.90
21698;DHT22;11010;49.548;11.926;2023-10-13T13:30:32;25.90;99.90
21698;DHT22;11010;49.548;11.926;2023-10-13T13:33:05;25.60;99.90
21698;DHT22;11010;49.548;11.926;2023-10-13T13:35:39;25.10;99.90
21698;DHT22;11010;49.548;11.926;2023-10-13T13:38:10;24.90;99.90
21698;DHT22;11010;49.548;11.926;2023-10-13T13:40:44;24.80;99.90
21698;DHT22;11010;49.548;11.926;2023-10-13T13:43:16;24.70;99.90
21698;DHT22;11010;49.548;11.926;2023-10-13T13:46:06;24.60;99.90
21698;DHT22;11010;49.548;11.926;2023-10-13T13:48:37;24.60;99.90
21698;DHT22;11010;49.548;11.926;2023-10-13T13:51:06;24.80;99.90
21698;DHT22;11010;49.548;11.926;2023-10-13T13:53:41;25.10;99.90
21698;DHT22;11010;49.548;11.926;2023-10-13T13:56:16;25.20;99.90
21698;DHT22;11010;49.548;11.926;2023-10-13T13:58:49;24.90;99.90
21698;DHT22;11010;49.548;11.926;2023-10-13T14:01:34;25.00;99.90
21698;DHT22;11010;49.548;11.926;2023-10-13T14:04:05;25.10;99.90
21698;DHT22;11010;49.548;11.926;2023-10-13T14:06:34;25.30;99.90
21698;DHT22;11010;49.548;11.926;2023-10-13T14:09:02;24.90;99.90
21698;DHT22;11010;49.548;11.926;2023-10-13T14:11:32;24.60;99.90
21698;DHT22;11010;49.548;11.926;2023-10-13T14:14:07;24.40;99.90
21698;DHT22;11010;49.548;11.926;2023-10-13T14:16:53;24.30;99.90
21698;DHT22;11010;49.548;11.926;2023-10-13T14:19:20;24.40;99.90
21698;DHT22;11010;49.548;11.926;2023-10-13T14:22:01;24.70;99.90
21698;DHT22;11010;49.548;11.926;2023-10-13T14:24:35;25.20;99.90
21698;DHT22;11010;49.548;11.926;2023-10-13T14:27:03;25.80;99.90
21698;DHT22;11010;49.548;11.926;2023-10-13T14:29:45;25.70;99.90
21698;DHT22;11010;49.548;11.926;2023-10-13T14:32:14;26.00;99.90
21698;DHT22;11010;49.548;11.926;2023-10-13T14:34:44;25.40;99.90
21698;DHT22;11010;49.548;11.926;2023-10-13T14:37:13;24.70;99.90
21698;DHT22;11010;49.548;11.926;2023-10-13T14:39:41;24.90;99.90
21698;DHT22;11010;49.548;11.926;2023-10-13T14:42:08;25.20;99.90
21698;DHT22;11010;49.548;11.926;2023-10-13T14:44:36;25.30;99.90
21698;DHT22;11010;49.548;11.926;2023-10-13T14:47:04;25.30;99.90
21698;DHT22;11010;49.548;11.926;2023-10-13T14:49:37;25.20;99.90
21698;DHT22;11010;49.548;11.926;2023-10-13T14:52:06;25.30;99.90
21698;DHT22;11010;49.548;11.926;2023-10-13T14:54:33;25.40;99.90
21698;DHT22;11010;49.548;11.926;2023-10-13T14:57:04;25.30;99.90
21698;DHT22;11010;49.548;11.926;2023-10-13T14:59:31;25.20;99.90
21698;DHT22;11010;49.548;11.926;2023-10-13T15:02:06;25.00;99.90
21698;DHT22;11010;49.548;11.926;2023-10-13T15:04:34;24.80;99.90
21698;DHT22;11010;49.548;11.926;2023-10-13T15:07:02;25.10;99.90
21698;DHT22;11010;49.548;11.926;2023-10-13T15:09:30;24.90;99.90
21698;DHT22;11010;49.548;11.926;2023-10-13T15:11:58;24.90;99.90
21698;DHT22;11010;49.548;11.926;2023-10-13T15:14:26;24.80;99.90
21698;DHT22;11010;49.548;11.926;2023-10-13T15:16:54;24.80;99.90
21698;DHT22;11010;49.548;11.926;2023-10-13T15:19:22;24.60;99.90
21698;DHT22;11010;49.548;11.926;2023-10-13T15:21:50;24.60;99.90
21698;DHT22;11010;49.548;11.926;2023-10-13T15:24:20;24.50;99.90
21698;DHT22;11010;49.548;11.926;2023-10-13T15:26:54;24.40;99.90
21698;DHT22;11010;49.548;11.926;2023-10-13T15:29:35;24.20;99.90
21698;DHT22;11010;49.548;11.926;2023-10-13T15:32:05;23.90;99.90
21698;DHT22;11010;49.548;11.926;2023-10-13T15:34:54;23.70;99.90
21698;DHT22;11010;49.548;11.926;2023-10-13T15:37:23;23.60;99.90
21698;DHT22;11010;49.548;11.926;2023-10-13T15:39:53;23.60;99.90
21698;DHT22;11010;49.548;11.926;2023-10-13T15:42:20;23.50;99.90
21698;DHT22;11010;49.548;11.926;2023-10-13T15:44:48;23.50;99.90
21698;DHT22;11010;49.548;11.926;2023-10-13T15:47:17;23.40;99.90
21698;DHT22;11010;49.548;11.926;2023-10-13T15:49:48;23.40;99.90
21698;DHT22;11010;49.548;11.926;2023-10-13T15:52:16;23.30;99.90
21698;DHT22;11010;49.548;11.926;2023-10-13T15:54:43;23.20;99.90
21698;DHT22;11010;49.548;11.926;2023-10-13T15:57:11;23.10;99.90
21698;DHT22;11010;49.548;11.926;2023-10-13T15:59:43;23.00;99.90
21698;DHT22;11010;49.548;11.926;2023-10-13T16:02:14;22.90;99.90
21698;DHT22;11010;49.548;11.926;2023-10-13T16:04:47;22.70;99.90
21698;DHT22;11010;49.548;11.926;2023-10-13T16:07:15;22.60;99.90
21698;DHT22;11010;49.548;11.926;2023-10-13T16:09:45;22.60;99.90
21698;DHT22;11010;49.548;11.926;2023-10-13T16:12:12;22.50;99.90
21698;DHT22;11010;49.548;11.926;2023-10-13T16:14:42;22.30;99.90
21698;DHT22;11010;49.548;11.926;2023-10-13T16:17:10;22.30;99.90